createdAt,value
2023-12-14T00:01:17.836Z,83.07
2023-12-14T00:03:45.714Z,81.03
2023-12-14T00:06:13.322Z,77.82
2023-12-14T00:08:40.926Z,84.39
2023-12-14T00:11:09.393Z,84.19
2023-12-14T00:13:36.931Z,79.95
2023-12-14T00:16:04.677Z,79.49
2023-12-14T00:18:32.398Z,79.67
2023-12-14T00:20:59.838Z,80.91
2023-12-14T00:23:27.647Z,82.67
2023-12-14T00:25:55.400Z,84.47
2023-12-14T00:28:25.285Z,82.21
2023-12-14T00:30:54.246Z,81.11
2023-12-14T00:33:21.973Z,78.12
2023-12-14T00:35:49.398Z,76.91
2023-12-14T00:38:16.865Z,80.23
2023-12-14T00:40:44.597Z,80.02
2023-12-14T00:43:12.065Z,77.07
2023-12-14T00:45:39.504Z,76.78
2023-12-14T00:48:07.231Z,78.77
2023-12-14T00:50:34.698Z,82.98
2023-12-14T00:53:02.135Z,80.08
2023-12-14T00:55:29.836Z,79.55
2023-12-14T00:57:57.271Z,78.71
2023-12-14T01:00:24.665Z,78.69
2023-12-14T01:02:52.285Z,80.49
2023-12-14T01:05:19.785Z,79.66
2023-12-14T01:07:47.287Z,82.18
2023-12-14T01:10:15.205Z,77.85
2023-12-14T01:12:42.624Z,82.14
2023-12-14T01:15:10.463Z,83.89
2023-12-14T01:17:38.916Z,84.33
2023-12-14T01:20:08.214Z,86.81
2023-12-14T01:22:36.014Z,86.89
2023-12-14T01:25:04.236Z,84.76
2023-12-14T01:27:31.744Z,83.17
2023-12-14T01:29:59.250Z,84.68
2023-12-14T01:32:27.100Z,86.78
2023-12-14T01:34:54.629Z,87.79
2023-12-14T01:37:22.041Z,87.33
2023-12-14T01:39:49.684Z,82.47
2023-12-14T01:42:17.095Z,83.94
2023-12-14T01:44:44.501Z,83.57
2023-12-14T01:47:12.340Z,81.64
2023-12-14T01:49:40.259Z,83.22
2023-12-14T01:52:07.867Z,83.54
2023-12-14T01:54:35.529Z,86.88
2023-12-14T01:57:02.923Z,88.20
2023-12-14T01:59:30.315Z,87.02
2023-12-14T02:01:58.323Z,87.01
2023-12-14T02:04:29.013Z,83.37
2023-12-14T02:06:56.482Z,80.47
2023-12-14T02:09:23.958Z,80.39
2023-12-14T02:11:51.683Z,78.41
2023-12-14T02:14:19.171Z,79.92
2023-12-14T02:16:46.557Z,81.23
2023-12-14T02:19:14.250Z,86.44
2023-12-14T02:21:41.661Z,87.76
2023-12-14T02:24:09.026Z,85.64
2023-12-14T02:26:36.693Z,86.24
2023-12-14T02:29:04.143Z,88.32
2023-12-14T02:31:31.828Z,85.22
2023-12-14T02:33:59.562Z,80.09
2023-12-14T02:36:27.067Z,79.68
2023-12-14T02:38:54.544Z,78.37
2023-12-14T02:41:22.210Z,77.47
2023-12-14T02:43:49.605Z,75.89
2023-12-14T02:46:17.104Z,75.67
2023-12-14T02:48:44.951Z,76.29
2023-12-14T02:51:18.478Z,74.27
2023-12-14T02:53:46.128Z,74.85
2023-12-14T02:56:13.826Z,72.40
2023-12-14T02:58:41.418Z,73.23
2023-12-14T03:01:09.274Z,74.69
2023-12-14T03:03:39.883Z,77.76
2023-12-14T03:06:07.466Z,78.74
2023-12-14T03:08:35.170Z,78.98
2023-12-14T03:11:02.625Z,80.08
2023-12-14T03:13:30.052Z,82.82
2023-12-14T03:15:57.794Z,79.21
2023-12-14T03:18:25.321Z,81.05
2023-12-14T03:20:52.747Z,79.95
2023-12-14T03:23:20.424Z,78.25
2023-12-14T03:25:47.900Z,76.42
2023-12-14T03:28:15.326Z,74.56
2023-12-14T03:30:43.078Z,74.31
2023-12-14T03:33:10.661Z,75.21
2023-12-14T03:35:38.208Z,73.93
2023-12-14T03:38:06.116Z,72.25
2023-12-14T03:40:33.690Z,72.25
2023-12-14T03:43:01.137Z,72.99
2023-12-14T03:45:28.798Z,73.83
2023-12-14T03:47:56.207Z,73.42
2023-12-14T03:50:23.887Z,75.36
2023-12-14T03:52:51.629Z,77.37
2023-12-14T03:55:19.097Z,79.87
2023-12-14T03:57:46.551Z,80.21
2023-12-14T04:00:14.618Z,75.82
2023-12-14T04:02:42.306Z,73.82
2023-12-14T04:05:10.418Z,73.79
2023-12-14T04:07:40.724Z,75.85
2023-12-14T04:10:09.930Z,75.69
2023-12-14T04:12:37.802Z,75.53
2023-12-14T04:15:05.827Z,75.99
2023-12-14T04:17:33.778Z,74.89
2023-12-14T04:20:01.450Z,80.02
2023-12-14T04:22:28.960Z,75.38
2023-12-14T04:24:56.673Z,76.46
2023-12-14T04:27:28.197Z,75.05
2023-12-14T04:29:55.690Z,76.32
2023-12-14T04:32:23.350Z,78.56
2023-12-14T04:34:50.787Z,75.21
2023-12-14T04:37:18.209Z,74.42
2023-12-14T04:39:46.180Z,74.15
2023-12-14T04:42:13.617Z,78.99
2023-12-14T04:44:41.040Z,75.57
2023-12-14T04:47:09.729Z,76.28
2023-12-14T04:49:37.376Z,75.25
2023-12-14T04:52:05.558Z,74.27
2023-12-14T04:54:33.272Z,75.37
2023-12-14T04:57:00.656Z,78.36
2023-12-14T04:59:28.082Z,74.97
2023-12-14T05:01:55.931Z,73.66
2023-12-14T05:04:23.336Z,75.79
2023-12-14T05:06:50.759Z,75.19
2023-12-14T05:09:18.472Z,74.22
2023-12-14T05:11:45.906Z,74.48
2023-12-14T05:14:13.380Z,72.67
2023-12-14T05:16:41.179Z,79.36
2023-12-14T05:19:08.683Z,79.56
2023-12-14T05:21:36.157Z,78.09
2023-12-14T05:24:04.163Z,77.64
2023-12-14T05:26:31.633Z,76.29
2023-12-14T05:28:59.202Z,78.50
2023-12-14T05:31:27.072Z,75.63
2023-12-14T05:33:54.633Z,80.45
2023-12-14T05:36:22.238Z,76.31
2023-12-14T05:38:49.964Z,77.12
2023-12-14T05:41:17.441Z,76.28
2023-12-14T05:43:45.036Z,76.01
2023-12-14T05:46:21.975Z,78.76
2023-12-14T05:48:50.040Z,79.94
2023-12-14T05:51:28.360Z,77.86
2023-12-14T05:53:56.051Z,78.80
2023-12-14T05:56:23.966Z,78.36
2023-12-14T05:58:51.420Z,78.25
2023-12-14T06:01:19.549Z,79.75
2023-12-14T06:03:47.796Z,76.96
2023-12-14T06:06:15.788Z,74.86
2023-12-14T06:08:43.350Z,73.67
2023-12-14T06:11:11.063Z,74.17
2023-12-14T06:13:39.019Z,75.78
2023-12-14T06:16:07.988Z,74.82
2023-12-14T06:18:35.752Z,73.61
2023-12-14T06:21:03.343Z,74.49
2023-12-14T06:23:30.752Z,74.37
2023-12-14T06:25:59.640Z,76.49
2023-12-14T06:28:27.044Z,76.60
2023-12-14T06:30:54.471Z,74.61
2023-12-14T06:33:22.717Z,76.33
2023-12-14T06:35:50.205Z,74.42
2023-12-14T06:38:17.779Z,74.29
2023-12-14T06:40:45.609Z,75.78
2023-12-14T06:43:13.039Z,76.89
2023-12-14T06:45:40.480Z,74.84
2023-12-14T06:48:08.324Z,73.60
2023-12-14T06:50:35.847Z,77.59
2023-12-14T06:53:03.587Z,75.56
2023-12-14T06:55:31.403Z,74.09
2023-12-14T06:57:58.855Z,74.20
2023-12-14T07:00:26.267Z,75.56
2023-12-14T07:02:54.030Z,72.69
2023-12-14T07:05:21.951Z,72.12
2023-12-14T07:07:49.758Z,72.58
2023-12-14T07:10:17.950Z,73.56
2023-12-14T07:12:45.487Z,75.27
2023-12-14T07:15:12.863Z,75.56
2023-12-14T07:17:41.074Z,71.96
2023-12-14T07:20:09.076Z,71.75
2023-12-14T07:22:36.738Z,74.55
2023-12-14T07:25:05.198Z,71.81
2023-12-14T07:27:32.646Z,71.25
2023-12-14T07:30:00.053Z,70.84
2023-12-14T07:32:28.144Z,73.24
2023-12-14T07:34:56.248Z,72.46
2023-12-14T07:37:23.712Z,70.81
2023-12-14T07:39:51.442Z,73.03
2023-12-14T07:42:21.234Z,73.12
2023-12-14T07:44:48.626Z,72.04
2023-12-14T07:47:16.440Z,72.64
2023-12-14T07:49:44.027Z,71.44
2023-12-14T07:52:11.477Z,70.08
2023-12-14T07:54:39.199Z,69.20
2023-12-14T07:57:06.677Z,71.27
2023-12-14T07:59:34.194Z,71.40
2023-12-14T08:02:01.994Z,70.71
2023-12-14T08:04:29.812Z,70.55
2023-12-14T08:06:57.732Z,70.39
2023-12-14T08:09:25.285Z,70.15
2023-12-14T08:11:53.611Z,67.94
2023-12-14T08:14:21.193Z,68.71
2023-12-14T08:16:48.707Z,69.23
2023-12-14T08:19:16.499Z,67.26
2023-12-14T08:21:43.931Z,68.39
2023-12-14T08:24:11.352Z,66.91
2023-12-14T08:26:39.042Z,68.14
2023-12-14T08:29:06.461Z,67.69
2023-12-14T08:31:33.931Z,68.28
2023-12-14T08:34:02.144Z,67.55
2023-12-14T08:36:29.627Z,66.20
2023-12-14T08:38:57.003Z,66.59
2023-12-14T08:41:24.795Z,67.11
2023-12-14T08:43:52.364Z,66.53
2023-12-14T08:46:19.863Z,67.01
2023-12-14T08:48:48.042Z,66.84
2023-12-14T08:51:15.478Z,67.25
2023-12-14T08:53:46.428Z,66.91
2023-12-14T08:56:14.142Z,66.77
2023-12-14T08:58:41.650Z,66.50
2023-12-14T09:01:09.150Z,68.23
2023-12-14T09:03:36.958Z,69.28
2023-12-14T09:06:06.582Z,68.72
2023-12-14T09:08:34.221Z,67.95
2023-12-14T09:11:01.976Z,68.26
2023-12-14T09:13:29.436Z,67.45
2023-12-14T09:15:56.933Z,66.98
2023-12-14T09:18:25.294Z,66.08
2023-12-14T09:20:52.757Z,66.70
2023-12-14T09:23:20.492Z,67.15
2023-12-14T09:25:52.021Z,66.53
2023-12-14T09:28:19.511Z,65.98
2023-12-14T09:30:46.991Z,64.51
2023-12-14T09:33:17.500Z,65.81
2023-12-14T09:35:45.132Z,65.55
2023-12-14T09:38:15.062Z,66.77
2023-12-14T09:40:45.251Z,66.43
2023-12-14T09:43:15.090Z,66.91
2023-12-14T09:45:46.472Z,65.77
2023-12-14T09:48:14.244Z,67.14
2023-12-14T09:50:42.204Z,66.39
2023-12-14T09:53:09.898Z,67.63
2023-12-14T09:55:37.382Z,66.63
2023-12-14T09:58:04.854Z,64.81
2023-12-14T10:00:39.281Z,67.05
2023-12-14T10:03:23.864Z,66.26
2023-12-14T10:05:51.630Z,66.23
2023-12-14T10:08:19.737Z,64.21
2023-12-14T10:10:50.322Z,63.41
2023-12-14T10:13:17.937Z,65.27
2023-12-14T10:15:46.465Z,66.13
2023-12-14T10:18:22.417Z,67.26
2023-12-14T10:20:50.168Z,65.74
2023-12-14T10:23:17.727Z,65.51
2023-12-14T10:25:45.280Z,65.96
2023-12-14T10:28:16.405Z,67.90
2023-12-14T10:30:43.919Z,67.45
2023-12-14T10:33:11.530Z,68.15
2023-12-14T10:35:39.379Z,66.88
2023-12-14T10:38:06.900Z,69.42
2023-12-14T10:40:34.365Z,70.16
2023-12-14T10:43:02.342Z,69.67
2023-12-14T10:45:31.254Z,67.58
2023-12-14T10:48:00.081Z,67.01
2023-12-14T10:50:32.537Z,67.30
2023-12-14T10:53:00.346Z,68.62
2023-12-14T10:55:44.416Z,68.50
2023-12-14T10:58:12.070Z,70.04
2023-12-14T11:00:39.968Z,70.29
2023-12-14T11:03:07.454Z,70.87
2023-12-14T11:05:35.490Z,68.31
2023-12-14T11:08:11.438Z,67.95
2023-12-14T11:10:53.965Z,68.25
2023-12-14T11:13:21.728Z,68.73
2023-12-14T11:15:51.363Z,68.68
2023-12-14T11:18:19.110Z,66.92
2023-12-14T11:20:47.107Z,69.90
2023-12-14T11:23:19.177Z,68.63
2023-12-14T11:25:55.417Z,69.07
2023-12-14T11:28:26.730Z,69.66
2023-12-14T11:30:56.474Z,70.55
2023-12-14T11:33:24.904Z,67.65
2023-12-14T11:35:53.818Z,68.20
2023-12-14T11:38:22.887Z,69.23
2023-12-14T11:40:51.608Z,70.70
2023-12-14T11:43:22.020Z,72.10
2023-12-14T11:45:50.590Z,71.92
2023-12-14T11:48:18.563Z,70.75
2023-12-14T11:50:46.561Z,70.80
2023-12-14T11:53:15.033Z,70.13
2023-12-14T11:55:43.077Z,71.14
2023-12-14T11:58:12.762Z,70.87
2023-12-14T12:00:41.257Z,71.88
2023-12-14T12:03:09.917Z,69.84
2023-12-14T12:05:48.034Z,68.68
2023-12-14T12:08:16.555Z,68.80
2023-12-14T12:10:44.669Z,70.28
2023-12-14T12:13:17.023Z,69.60
2023-12-14T12:15:44.901Z,69.57
2023-12-14T12:18:14.165Z,71.57
2023-12-14T12:20:41.789Z,69.55
2023-12-14T12:23:11.173Z,70.61
2023-12-14T12:25:38.665Z,72.56
2023-12-14T12:28:06.236Z,72.59
2023-12-14T12:30:35.551Z,71.08
2023-12-14T12:33:04.698Z,70.63
2023-12-14T12:35:34.167Z,72.58
2023-12-14T12:38:02.678Z,73.65
2023-12-14T12:40:32.248Z,72.37
2023-12-14T12:42:59.812Z,69.36
2023-12-14T12:45:29.502Z,69.70
2023-12-14T12:47:57.378Z,69.40
2023-12-14T12:50:25.461Z,70.40
2023-12-14T12:52:53.349Z,73.75
2023-12-14T12:55:20.808Z,71.53
2023-12-14T12:57:49.375Z,72.66
2023-12-14T13:00:17.629Z,74.28
2023-12-14T13:02:48.217Z,73.10
2023-12-14T13:05:18.131Z,71.68
2023-12-14T13:07:47.122Z,71.90
2023-12-14T13:10:25.391Z,70.97
2023-12-14T13:13:00.921Z,71.97
2023-12-14T13:15:30.405Z,73.44
2023-12-14T13:17:58.618Z,72.76
2023-12-14T13:20:26.487Z,73.39
2023-12-14T13:22:54.534Z,72.18
2023-12-14T13:25:24.381Z,72.56
2023-12-14T13:27:52.019Z,71.86
2023-12-14T13:30:20.420Z,73.31
2023-12-14T13:32:47.982Z,72.99
2023-12-14T13:35:15.809Z,74.17
2023-12-14T13:37:43.320Z,72.35
2023-12-14T13:40:13.839Z,73.04
2023-12-14T13:42:50.931Z,72.13
2023-12-14T13:45:31.530Z,72.68
2023-12-14T13:48:00.251Z,73.31
2023-12-14T13:50:29.078Z,73.04
2023-12-14T13:52:57.178Z,74.46
2023-12-14T13:55:25.025Z,73.71
2023-12-14T13:57:52.571Z,74.61
2023-12-14T14:00:20.477Z,75.63
2023-12-14T14:02:48.163Z,75.01
2023-12-14T14:05:15.828Z,77.72
2023-12-14T14:07:43.360Z,77.77
2023-12-14T14:10:11.276Z,75.27
2023-12-14T14:12:39.161Z,74.20
2023-12-14T14:15:07.720Z,75.66
2023-12-14T14:17:35.731Z,75.61
2023-12-14T14:20:03.747Z,78.88
2023-12-14T14:22:31.198Z,78.58
2023-12-14T14:24:58.916Z,75.73
2023-12-14T14:27:26.290Z,73.54
2023-12-14T14:29:56.760Z,72.74
2023-12-14T14:32:24.616Z,73.07
2023-12-14T14:34:52.340Z,76.19
2023-12-14T14:37:19.836Z,78.17
2023-12-14T14:39:47.489Z,78.62
2023-12-14T14:42:14.948Z,75.50
2023-12-14T14:44:42.405Z,76.53
2023-12-14T14:47:10.459Z,76.33
2023-12-14T14:49:37.840Z,77.84
2023-12-14T14:52:05.453Z,77.57
2023-12-14T14:54:33.105Z,78.66
2023-12-14T14:57:00.513Z,76.76
2023-12-14T14:59:28.080Z,76.69
2023-12-14T15:01:56.936Z,79.90
2023-12-14T15:04:24.496Z,81.41
2023-12-14T15:06:51.922Z,83.02
2023-12-14T15:09:19.626Z,81.76
2023-12-14T15:11:47.003Z,81.66
2023-12-14T15:14:14.415Z,80.27
2023-12-14T15:16:42.177Z,82.43
2023-12-14T15:19:09.951Z,81.69
2023-12-14T15:21:37.381Z,81.12
2023-12-14T15:24:05.262Z,82.24
2023-12-14T15:26:33.784Z,79.40
2023-12-14T15:29:01.217Z,83.80
2023-12-14T15:31:28.877Z,80.97
2023-12-14T15:33:56.357Z,79.93
2023-12-14T15:36:23.932Z,81.36
2023-12-14T15:38:51.645Z,82.79
2023-12-14T15:41:19.253Z,80.91
2023-12-14T15:43:46.753Z,79.08
2023-12-14T15:46:14.861Z,78.78
2023-12-14T15:48:43.323Z,79.30
2023-12-14T15:51:10.759Z,81.31
2023-12-14T15:53:38.505Z,81.79
2023-12-14T15:56:06.636Z,81.34
2023-12-14T15:58:34.101Z,80.58
2023-12-14T16:01:01.827Z,80.24
2023-12-14T16:03:29.620Z,82.77
2023-12-14T16:05:57.250Z,79.80
2023-12-14T16:08:24.771Z,82.27
2023-12-14T16:10:54.612Z,81.68
2023-12-14T16:13:22.143Z,81.85
2023-12-14T16:15:49.587Z,82.38
2023-12-14T16:18:17.307Z,84.19
2023-12-14T16:20:44.779Z,81.90
2023-12-14T16:23:12.261Z,82.21
2023-12-14T16:25:39.946Z,81.21
2023-12-14T16:28:07.331Z,79.94
2023-12-14T16:30:34.790Z,80.37
2023-12-14T16:33:02.602Z,81.54
2023-12-14T16:35:31.418Z,79.67
2023-12-14T16:37:58.988Z,80.21
2023-12-14T16:40:26.675Z,80.33
2023-12-14T16:42:54.191Z,81.14
2023-12-14T16:45:21.733Z,83.42
2023-12-14T16:47:49.395Z,80.76
2023-12-14T16:50:16.971Z,82.37
2023-12-14T16:52:44.460Z,80.99
2023-12-14T16:55:12.213Z,82.36
2023-12-14T16:57:39.615Z,83.01
2023-12-14T17:00:07.610Z,82.05
2023-12-14T17:02:35.617Z,82.54
2023-12-14T17:05:04.707Z,81.24
2023-12-14T17:07:32.261Z,79.18
2023-12-14T17:09:59.954Z,81.97
2023-12-14T17:12:27.333Z,81.26
2023-12-14T17:14:55.008Z,81.84
2023-12-14T17:17:23.042Z,82.06
2023-12-14T17:19:50.588Z,79.70
2023-12-14T17:22:18.045Z,78.69
2023-12-14T17:24:45.737Z,79.34
2023-12-14T17:27:13.210Z,79.77
2023-12-14T17:29:40.593Z,78.97
2023-12-14T17:32:08.442Z,79.03
2023-12-14T17:34:36.146Z,80.18
2023-12-14T17:37:03.772Z,78.90
2023-12-14T17:39:31.648Z,80.45
2023-12-14T17:41:59.119Z,79.89
2023-12-14T17:44:26.671Z,80.38
2023-12-14T17:46:54.388Z,81.28
2023-12-14T17:49:22.127Z,82.49
2023-12-14T17:51:49.609Z,79.16
2023-12-14T17:54:18.257Z,80.40
2023-12-14T17:56:46.340Z,79.09
2023-12-14T17:59:13.797Z,82.10
2023-12-14T18:01:46.442Z,80.60
2023-12-14T18:04:14.674Z,80.98
2023-12-14T18:06:45.269Z,79.50
2023-12-14T18:09:12.683Z,80.70
2023-12-14T18:11:40.545Z,75.93
2023-12-14T18:14:08.250Z,79.40
2023-12-14T18:16:39.807Z,79.58
2023-12-14T18:19:08.017Z,78.39
2023-12-14T18:21:35.816Z,78.94
2023-12-14T18:24:04.791Z,77.88
2023-12-14T18:26:32.572Z,78.28
2023-12-14T18:29:00.064Z,77.32
2023-12-14T18:31:27.553Z,75.27
2023-12-14T18:33:55.416Z,75.61
2023-12-14T18:36:24.414Z,78.07
2023-12-14T18:38:51.880Z,78.30
2023-12-14T18:41:19.604Z,77.19
2023-12-14T18:43:47.183Z,76.94
2023-12-14T18:46:14.662Z,74.90
2023-12-14T18:48:43.583Z,74.10
2023-12-14T18:51:11.645Z,73.01
2023-12-14T18:53:39.087Z,74.36
2023-12-14T18:56:07.227Z,73.84
2023-12-14T18:58:34.669Z,75.34
2023-12-14T19:01:04.027Z,76.90
2023-12-14T19:03:31.836Z,75.12
2023-12-14T19:05:59.532Z,77.28
2023-12-14T19:08:27.058Z,76.31
2023-12-14T19:10:54.766Z,74.33
2023-12-14T19:13:22.603Z,77.10
2023-12-14T19:15:50.193Z,78.87
2023-12-14T19:18:17.999Z,78.72
2023-12-14T19:20:45.467Z,82.39
2023-12-14T19:23:12.893Z,80.81
2023-12-14T19:25:40.671Z,81.85
2023-12-14T19:28:08.068Z,81.20
2023-12-14T19:30:35.618Z,78.57
2023-12-14T19:33:03.439Z,76.34
2023-12-14T19:35:31.058Z,74.93
2023-12-14T19:37:58.552Z,73.21
2023-12-14T19:40:26.392Z,75.13
2023-12-14T19:42:53.798Z,74.29
2023-12-14T19:45:21.219Z,74.56
2023-12-14T19:47:48.916Z,73.86
2023-12-14T19:50:16.538Z,76.29
2023-12-14T19:52:44.061Z,80.07
2023-12-14T19:55:13.253Z,80.44
2023-12-14T19:57:41.022Z,80.65
2023-12-14T20:00:12.327Z,81.58
2023-12-14T20:02:40.128Z,80.53
2023-12-14T20:05:08.102Z,80.52
2023-12-14T20:07:35.862Z,80.12
2023-12-14T20:10:04.766Z,81.50
2023-12-14T20:12:32.777Z,79.48
2023-12-14T20:15:00.369Z,79.80
2023-12-14T20:17:28.241Z,82.53
2023-12-14T20:19:55.767Z,80.17
2023-12-14T20:22:23.354Z,82.39
2023-12-14T20:24:51.120Z,82.20
2023-12-14T20:27:18.549Z,82.09
2023-12-14T20:29:46.224Z,82.47
2023-12-14T20:32:13.988Z,82.99
2023-12-14T20:34:41.404Z,81.00
2023-12-14T20:37:08.893Z,81.81
2023-12-14T20:39:36.620Z,82.40
2023-12-14T20:42:04.117Z,80.19
2023-12-14T20:44:31.568Z,78.07
2023-12-14T20:46:59.298Z,81.14
2023-12-14T20:49:26.884Z,82.57
2023-12-14T20:51:54.389Z,83.01
2023-12-14T20:54:22.080Z,83.00
2023-12-14T20:56:49.472Z,84.28
2023-12-14T20:59:16.926Z,82.02
2023-12-14T21:01:44.612Z,80.70
2023-12-14T21:04:12.049Z,79.82
2023-12-14T21:06:39.471Z,80.70
2023-12-14T21:09:07.201Z,81.36
2023-12-14T21:11:34.624Z,80.25
2023-12-14T21:14:01.995Z,80.57
2023-12-14T21:16:29.720Z,81.55
2023-12-14T21:18:57.533Z,83.43
2023-12-14T21:21:25.016Z,79.45
2023-12-14T21:23:52.763Z,79.40
2023-12-14T21:26:21.923Z,79.30
2023-12-14T21:28:49.352Z,79.03
2023-12-14T21:31:17.087Z,81.12
2023-12-14T21:33:44.585Z,81.78
2023-12-14T21:36:12.186Z,79.68
2023-12-14T21:38:40.621Z,79.22
2023-12-14T21:41:08.072Z,80.64
2023-12-14T21:43:35.569Z,79.32
2023-12-14T21:46:03.430Z,80.60
2023-12-14T21:48:30.921Z,79.12
2023-12-14T21:50:58.448Z,81.61
2023-12-14T21:53:26.375Z,78.70
2023-12-14T21:55:53.890Z,77.56
2023-12-14T21:58:21.681Z,79.81
2023-12-14T22:00:49.389Z,79.68
2023-12-14T22:03:17.846Z,80.69
2023-12-14T22:05:45.410Z,77.74
2023-12-14T22:08:12.906Z,77.50
2023-12-14T22:10:46.377Z,74.46
2023-12-14T22:13:13.793Z,73.37
2023-12-14T22:15:41.483Z,71.92
2023-12-14T22:18:10.058Z,72.45
2023-12-14T22:20:37.710Z,76.58
2023-12-14T22:23:05.516Z,75.70
2023-12-14T22:25:32.965Z,75.96
2023-12-14T22:28:00.346Z,75.31
2023-12-14T22:30:28.024Z,75.36
2023-12-14T22:32:55.487Z,73.40
2023-12-14T22:35:22.959Z,73.02
2023-12-14T22:37:50.692Z,74.66
2023-12-14T22:40:18.198Z,75.27
2023-12-14T22:42:45.698Z,72.81
2023-12-14T22:45:13.611Z,71.63
2023-12-14T22:47:41.427Z,71.47
2023-12-14T22:50:10.410Z,71.58
2023-12-14T22:52:38.169Z,71.98
2023-12-14T22:55:05.730Z,71.99
2023-12-14T22:57:33.123Z,72.64
2023-12-14T23:00:00.925Z,77.42
2023-12-14T23:02:28.747Z,78.89
2023-12-14T23:04:56.273Z,77.74
2023-12-14T23:07:24.032Z,78.87
2023-12-14T23:09:51.411Z,77.61
2023-12-14T23:12:20.706Z,78.38
2023-12-14T23:14:49.106Z,78.04
2023-12-14T23:17:16.588Z,80.40
2023-12-14T23:19:44.082Z,82.48
2023-12-14T23:22:11.715Z,80.32
2023-12-14T23:24:39.174Z,77.26
2023-12-14T23:27:06.653Z,79.56
2023-12-14T23:29:34.301Z,78.60
2023-12-14T23:32:01.733Z,81.28
2023-12-14T23:34:29.198Z,78.94
2023-12-14T23:36:56.877Z,75.69
2023-12-14T23:39:24.261Z,76.85
2023-12-14T23:41:51.693Z,75.95
2023-12-14T23:44:19.426Z,80.42
2023-12-14T23:46:46.901Z,78.61
2023-12-14T23:49:14.374Z,78.04
2023-12-14T23:51:42.125Z,75.43
2023-12-14T23:54:09.529Z,76.19
2023-12-14T23:56:36.962Z,76.98
2023-12-14T23:59:04.690Z,78.88
